sensor_id;sensor_type;location;lat;lon;timestamp;P1;durP1;ratioP1;P2;durP2;ratioP2
22097;SDS011;11215;51.938;8.464;2022-11-20T00:01:26;22.07;;;14.30;;
22097;SDS011;11215;51.938;8.464;2022-11-20T00:03:53;27.47;;;15.20;;
22097;SDS011;11215;51.938;8.464;2022-11-20T00:06:20;22.07;;;14.83;;
22097;SDS011;11215;51.938;8.464;2022-11-20T00:08:47;26.13;;;14.70;;
22097;SDS011;11215;51.938;8.464;2022-11-20T00:11:14;23.37;;;14.17;;
22097;SDS011;11215;51.938;8.464;2022-11-20T00:13:42;21.03;;;14.43;;
22097;SDS011;11215;51.938;8.464;2022-11-20T00:16:12;21.07;;;12.67;;
22097;SDS011;11215;51.938;8.464;2022-11-20T00:18:39;18.77;;;12.23;;
22097;SDS011;11215;51.938;8.464;2022-11-20T00:21:09;17.87;;;12.00;;
22097;SDS011;11215;51.938;8.464;2022-11-20T00:23:36;17.97;;;11.37;;
22097;SDS011;11215;51.938;8.464;2022-11-20T00:26:06;17.03;;;11.63;;
22097;SDS011;11215;51.938;8.464;2022-11-20T00:28:32;19.03;;;12.30;;
22097;SDS011;11215;51.938;8.464;2022-11-20T00:31:02;20.83;;;13.10;;
22097;SDS011;11215;51.938;8.464;2022-11-20T00:33:33;18.47;;;12.23;;
22097;SDS011;11215;51.938;8.464;2022-11-20T00:36:03;25.37;;;15.70;;
22097;SDS011;11215;51.938;8.464;2022-11-20T00:38:34;26.87;;;15.97;;
22097;SDS011;11215;51.938;8.464;2022-11-20T00:41:01;23.10;;;13.70;;
22097;SDS011;11215;51.938;8.464;2022-11-20T00:43:31;27.43;;;15.73;;
22097;SDS011;11215;51.938;8.464;2022-11-20T00:46:01;20.67;;;13.20;;
22097;SDS011;11215;51.938;8.464;2022-11-20T00:48:29;18.93;;;12.30;;
22097;SDS011;11215;51.938;8.464;2022-11-20T00:50:55;21.77;;;13.80;;
22097;SDS011;11215;51.938;8.464;2022-11-20T00:53:20;17.40;;;11.23;;
22097;SDS011;11215;51.938;8.464;2022-11-20T00:55:55;18.07;;;10.77;;
22097;SDS011;11215;51.938;8.464;2022-11-20T00:58:28;15.90;;;10.53;;
22097;SDS011;11215;51.938;8.464;2022-11-20T01:01:05;15.43;;;10.03;;
22097;SDS011;11215;51.938;8.464;2022-11-20T01:03:32;15.73;;;10.00;;
22097;SDS011;11215;51.938;8.464;2022-11-20T01:06:04;16.23;;;10.50;;
22097;SDS011;11215;51.938;8.464;2022-11-20T01:08:40;14.63;;;7.97;;
22097;SDS011;11215;51.938;8.464;2022-11-20T01:11:14;14.30;;;8.40;;
22097;SDS011;11215;51.938;8.464;2022-11-20T01:13:44;16.30;;;9.20;;
22097;SDS011;11215;51.938;8.464;2022-11-20T01:16:15;18.03;;;8.70;;
22097;SDS011;11215;51.938;8.464;2022-11-20T01:18:44;15.00;;;8.73;;
22097;SDS011;11215;51.938;8.464;2022-11-20T01:21:18;12.77;;;8.30;;
22097;SDS011;11215;51.938;8.464;2022-11-20T01:23:49;15.17;;;8.70;;
22097;SDS011;11215;51.938;8.464;2022-11-20T01:26:16;14.57;;;8.27;;
22097;SDS011;11215;51.938;8.464;2022-11-20T01:28:50;11.47;;;8.63;;
22097;SDS011;11215;51.938;8.464;2022-11-20T01:31:17;12.63;;;8.70;;
22097;SDS011;11215;51.938;8.464;2022-11-20T01:33:45;13.73;;;8.83;;
22097;SDS011;11215;51.938;8.464;2022-11-20T01:36:13;12.77;;;8.90;;
22097;SDS011;11215;51.938;8.464;2022-11-20T01:38:40;11.70;;;7.83;;
22097;SDS011;11215;51.938;8.464;2022-11-20T01:41:06;11.77;;;8.50;;
22097;SDS011;11215;51.938;8.464;2022-11-20T01:43:32;14.07;;;8.70;;
22097;SDS011;11215;51.938;8.464;2022-11-20T01:54:00;12.17;;;8.23;;
22097;SDS011;11215;51.938;8.464;2022-11-20T01:56:29;10.73;;;7.67;;
22097;SDS011;11215;51.938;8.464;2022-11-20T01:58:58;13.20;;;8.87;;
22097;SDS011;11215;51.938;8.464;2022-11-20T02:01:26;13.27;;;8.07;;
22097;SDS011;11215;51.938;8.464;2022-11-20T02:03:52;14.10;;;8.30;;
22097;SDS011;11215;51.938;8.464;2022-11-20T02:06:32;13.87;;;8.00;;
22097;SDS011;11215;51.938;8.464;2022-11-20T02:09:07;12.33;;;7.63;;
22097;SDS011;11215;51.938;8.464;2022-11-20T02:11:32;11.23;;;8.43;;
22097;SDS011;11215;51.938;8.464;2022-11-20T02:13:58;14.33;;;8.83;;
22097;SDS011;11215;51.938;8.464;2022-11-20T02:16:28;13.30;;;8.43;;
22097;SDS011;11215;51.938;8.464;2022-11-20T02:18:58;13.33;;;8.83;;
22097;SDS011;11215;51.938;8.464;2022-11-20T02:24:17;15.47;;;8.60;;
22097;SDS011;11215;51.938;8.464;2022-11-20T02:26:46;17.07;;;9.10;;
22097;SDS011;11215;51.938;8.464;2022-11-20T02:29:16;16.63;;;9.63;;
22097;SDS011;11215;51.938;8.464;2022-11-20T02:32:03;16.43;;;10.10;;
22097;SDS011;11215;51.938;8.464;2022-11-20T02:34:29;16.43;;;9.67;;
22097;SDS011;11215;51.938;8.464;2022-11-20T02:36:55;13.67;;;9.23;;
22097;SDS011;11215;51.938;8.464;2022-11-20T02:39:21;15.13;;;8.77;;
22097;SDS011;11215;51.938;8.464;2022-11-20T02:41:50;17.23;;;10.60;;
22097;SDS011;11215;51.938;8.464;2022-11-20T02:44:18;21.37;;;11.10;;
22097;SDS011;11215;51.938;8.464;2022-11-20T02:46:52;16.60;;;9.53;;
22097;SDS011;11215;51.938;8.464;2022-11-20T02:49:23;14.20;;;8.90;;
22097;SDS011;11215;51.938;8.464;2022-11-20T02:51:49;15.23;;;9.23;;
22097;SDS011;11215;51.938;8.464;2022-11-20T02:54:14;20.97;;;10.03;;
22097;SDS011;11215;51.938;8.464;2022-11-20T02:56:40;16.43;;;9.30;;
22097;SDS011;11215;51.938;8.464;2022-11-20T02:59:06;15.73;;;9.57;;
22097;SDS011;11215;51.938;8.464;2022-11-20T03:01:32;13.63;;;8.40;;
22097;SDS011;11215;51.938;8.464;2022-11-20T03:03:58;14.27;;;9.03;;
22097;SDS011;11215;51.938;8.464;2022-11-20T03:06:23;13.87;;;8.73;;
22097;SDS011;11215;51.938;8.464;2022-11-20T03:08:49;17.60;;;10.13;;
22097;SDS011;11215;51.938;8.464;2022-11-20T03:11:14;16.43;;;9.40;;
22097;SDS011;11215;51.938;8.464;2022-11-20T03:13:40;14.07;;;8.67;;
22097;SDS011;11215;51.938;8.464;2022-11-20T03:16:10;12.70;;;8.50;;
22097;SDS011;11215;51.938;8.464;2022-11-20T03:18:40;11.60;;;7.13;;
22097;SDS011;11215;51.938;8.464;2022-11-20T03:21:07;12.13;;;7.87;;
22097;SDS011;11215;51.938;8.464;2022-11-20T03:23:34;12.30;;;7.77;;
22097;SDS011;11215;51.938;8.464;2022-11-20T03:26:10;11.27;;;7.47;;
22097;SDS011;11215;51.938;8.464;2022-11-20T03:28:38;11.83;;;8.23;;
22097;SDS011;11215;51.938;8.464;2022-11-20T03:31:11;14.23;;;7.47;;
22097;SDS011;11215;51.938;8.464;2022-11-20T03:33:38;13.57;;;7.40;;
22097;SDS011;11215;51.938;8.464;2022-11-20T03:36:06;11.30;;;6.83;;
22097;SDS011;11215;51.938;8.464;2022-11-20T03:38:34;10.53;;;7.10;;
22097;SDS011;11215;51.938;8.464;2022-11-20T03:41:01;10.03;;;6.63;;
22097;SDS011;11215;51.938;8.464;2022-11-20T03:43:31;10.83;;;6.53;;
22097;SDS011;11215;51.938;8.464;2022-11-20T03:45:57;11.23;;;7.10;;
22097;SDS011;11215;51.938;8.464;2022-11-20T03:48:23;9.03;;;5.87;;
22097;SDS011;11215;51.938;8.464;2022-11-20T03:50:49;11.10;;;6.40;;
22097;SDS011;11215;51.938;8.464;2022-11-20T03:53:15;10.23;;;6.77;;
22097;SDS011;11215;51.938;8.464;2022-11-20T03:55:41;8.60;;;5.73;;
22097;SDS011;11215;51.938;8.464;2022-11-20T03:58:07;10.90;;;6.97;;
22097;SDS011;11215;51.938;8.464;2022-11-20T04:00:33;9.57;;;6.87;;
22097;SDS011;11215;51.938;8.464;2022-11-20T04:02:59;8.63;;;6.27;;
22097;SDS011;11215;51.938;8.464;2022-11-20T04:05:26;7.60;;;5.83;;
22097;SDS011;11215;51.938;8.464;2022-11-20T04:07:52;10.77;;;6.17;;
22097;SDS011;11215;51.938;8.464;2022-11-20T04:10:17;11.00;;;7.23;;
22097;SDS011;11215;51.938;8.464;2022-11-20T04:12:43;8.40;;;6.07;;
22097;SDS011;11215;51.938;8.464;2022-11-20T04:15:12;10.60;;;6.40;;
22097;SDS011;11215;51.938;8.464;2022-11-20T04:17:37;10.00;;;6.33;;
22097;SDS011;11215;51.938;8.464;2022-11-20T04:22:36;9.53;;;5.73;;
22097;SDS011;11215;51.938;8.464;2022-11-20T04:25:02;10.20;;;5.80;;
22097;SDS011;11215;51.938;8.464;2022-11-20T04:27:37;7.60;;;5.43;;
22097;SDS011;11215;51.938;8.464;2022-11-20T04:30:18;7.83;;;5.43;;
22097;SDS011;11215;51.938;8.464;2022-11-20T04:32:44;8.30;;;5.57;;
22097;SDS011;11215;51.938;8.464;2022-11-20T04:35:09;10.13;;;5.77;;
22097;SDS011;11215;51.938;8.464;2022-11-20T04:37:35;9.10;;;5.73;;
22097;SDS011;11215;51.938;8.464;2022-11-20T04:40:00;9.33;;;5.77;;
22097;SDS011;11215;51.938;8.464;2022-11-20T04:42:28;8.67;;;5.53;;
22097;SDS011;11215;51.938;8.464;2022-11-20T04:45:06;9.83;;;5.53;;
22097;SDS011;11215;51.938;8.464;2022-11-20T04:47:32;8.37;;;5.50;;
22097;SDS011;11215;51.938;8.464;2022-11-20T04:49:57;9.20;;;5.47;;
22097;SDS011;11215;51.938;8.464;2022-11-20T04:52:23;8.07;;;5.53;;
22097;SDS011;11215;51.938;8.464;2022-11-20T04:54:49;8.13;;;5.50;;
22097;SDS011;11215;51.938;8.464;2022-11-20T04:57:17;8.47;;;5.47;;
22097;SDS011;11215;51.938;8.464;2022-11-20T04:59:43;8.77;;;5.23;;
22097;SDS011;11215;51.938;8.464;2022-11-20T05:02:09;9.90;;;5.17;;
22097;SDS011;11215;51.938;8.464;2022-11-20T05:04:35;7.67;;;5.30;;
22097;SDS011;11215;51.938;8.464;2022-11-20T05:07:01;11.07;;;6.03;;
22097;SDS011;11215;51.938;8.464;2022-11-20T05:09:30;7.60;;;5.17;;
22097;SDS011;11215;51.938;8.464;2022-11-20T05:11:56;8.23;;;5.23;;
22097;SDS011;11215;51.938;8.464;2022-11-20T05:14:21;9.03;;;5.63;;
22097;SDS011;11215;51.938;8.464;2022-11-20T05:16:47;9.07;;;5.37;;
22097;SDS011;11215;51.938;8.464;2022-11-20T05:19:13;7.27;;;5.03;;
22097;SDS011;11215;51.938;8.464;2022-11-20T05:21:38;6.90;;;4.90;;
22097;SDS011;11215;51.938;8.464;2022-11-20T05:24:04;9.23;;;5.57;;
22097;SDS011;11215;51.938;8.464;2022-11-20T05:26:30;7.27;;;4.43;;
22097;SDS011;11215;51.938;8.464;2022-11-20T05:28:56;7.00;;;5.00;;
22097;SDS011;11215;51.938;8.464;2022-11-20T05:31:23;7.03;;;4.57;;
22097;SDS011;11215;51.938;8.464;2022-11-20T05:33:49;8.00;;;4.57;;
22097;SDS011;11215;51.938;8.464;2022-11-20T05:36:15;7.60;;;4.83;;
22097;SDS011;11215;51.938;8.464;2022-11-20T05:38:42;7.17;;;4.10;;
22097;SDS011;11215;51.938;8.464;2022-11-20T05:43:36;7.20;;;4.83;;
22097;SDS011;11215;51.938;8.464;2022-11-20T05:46:04;6.87;;;4.53;;
22097;SDS011;11215;51.938;8.464;2022-11-20T05:48:31;6.80;;;4.53;;
22097;SDS011;11215;51.938;8.464;2022-11-20T05:51:01;6.60;;;4.27;;
22097;SDS011;11215;51.938;8.464;2022-11-20T05:53:28;6.50;;;4.13;;
22097;SDS011;11215;51.938;8.464;2022-11-20T05:56:01;5.33;;;3.83;;
22097;SDS011;11215;51.938;8.464;2022-11-20T05:58:31;7.73;;;4.73;;
22097;SDS011;11215;51.938;8.464;2022-11-20T06:03:41;5.33;;;3.40;;
22097;SDS011;11215;51.938;8.464;2022-11-20T06:06:08;7.00;;;4.77;;
22097;SDS011;11215;51.938;8.464;2022-11-20T06:08:34;6.70;;;4.40;;
22097;SDS011;11215;51.938;8.464;2022-11-20T06:11:07;5.73;;;4.50;;
22097;SDS011;11215;51.938;8.464;2022-11-20T06:13:36;6.57;;;4.33;;
22097;SDS011;11215;51.938;8.464;2022-11-20T06:16:08;5.63;;;3.80;;
22097;SDS011;11215;51.938;8.464;2022-11-20T06:18:35;6.73;;;3.97;;
22097;SDS011;11215;51.938;8.464;2022-11-20T06:21:08;7.90;;;4.30;;
22097;SDS011;11215;51.938;8.464;2022-11-20T06:23:35;4.20;;;3.40;;
22097;SDS011;11215;51.938;8.464;2022-11-20T06:26:02;6.43;;;4.23;;
22097;SDS011;11215;51.938;8.464;2022-11-20T06:28:29;5.97;;;3.87;;
22097;SDS011;11215;51.938;8.464;2022-11-20T06:30:55;8.53;;;4.83;;
22097;SDS011;11215;51.938;8.464;2022-11-20T06:33:20;6.83;;;4.60;;
22097;SDS011;11215;51.938;8.464;2022-11-20T06:35:46;7.13;;;4.47;;
22097;SDS011;11215;51.938;8.464;2022-11-20T06:38:11;9.57;;;4.87;;
22097;SDS011;11215;51.938;8.464;2022-11-20T06:40:39;6.00;;;3.80;;
22097;SDS011;11215;51.938;8.464;2022-11-20T06:43:09;7.20;;;4.30;;
22097;SDS011;11215;51.938;8.464;2022-11-20T06:45:35;6.43;;;4.40;;
22097;SDS011;11215;51.938;8.464;2022-11-20T06:48:01;7.47;;;4.40;;
22097;SDS011;11215;51.938;8.464;2022-11-20T06:50:27;7.07;;;4.93;;
22097;SDS011;11215;51.938;8.464;2022-11-20T06:52:52;8.70;;;5.23;;
22097;SDS011;11215;51.938;8.464;2022-11-20T06:55:18;11.50;;;7.00;;
22097;SDS011;11215;51.938;8.464;2022-11-20T06:57:44;8.27;;;5.60;;
22097;SDS011;11215;51.938;8.464;2022-11-20T07:00:09;6.53;;;4.87;;
22097;SDS011;11215;51.938;8.464;2022-11-20T07:02:36;6.33;;;4.53;;
22097;SDS011;11215;51.938;8.464;2022-11-20T07:05:01;7.70;;;4.53;;
22097;SDS011;11215;51.938;8.464;2022-11-20T07:07:27;9.30;;;5.10;;
22097;SDS011;11215;51.938;8.464;2022-11-20T07:09:53;7.33;;;4.63;;
22097;SDS011;11215;51.938;8.464;2022-11-20T07:12:18;8.33;;;5.57;;
22097;SDS011;11215;51.938;8.464;2022-11-20T07:14:44;8.20;;;5.33;;
22097;SDS011;11215;51.938;8.464;2022-11-20T07:17:10;8.40;;;5.57;;
22097;SDS011;11215;51.938;8.464;2022-11-20T07:19:36;7.57;;;5.10;;
22097;SDS011;11215;51.938;8.464;2022-11-20T07:22:01;7.93;;;5.40;;
22097;SDS011;11215;51.938;8.464;2022-11-20T07:24:27;8.60;;;5.57;;
22097;SDS011;11215;51.938;8.464;2022-11-20T07:26:53;7.60;;;5.60;;
22097;SDS011;11215;51.938;8.464;2022-11-20T07:29:21;10.10;;;6.40;;
22097;SDS011;11215;51.938;8.464;2022-11-20T07:31:47;6.63;;;4.73;;
22097;SDS011;11215;51.938;8.464;2022-11-20T07:34:12;9.17;;;6.33;;
22097;SDS011;11215;51.938;8.464;2022-11-20T07:36:38;7.83;;;5.53;;
22097;SDS011;11215;51.938;8.464;2022-11-20T07:39:04;7.67;;;5.10;;
22097;SDS011;11215;51.938;8.464;2022-11-20T07:41:30;8.43;;;5.20;;
22097;SDS011;11215;51.938;8.464;2022-11-20T07:43:57;7.50;;;4.90;;
22097;SDS011;11215;51.938;8.464;2022-11-20T07:46:22;10.50;;;5.13;;
22097;SDS011;11215;51.938;8.464;2022-11-20T07:48:48;8.93;;;5.50;;
22097;SDS011;11215;51.938;8.464;2022-11-20T07:51:14;9.83;;;6.07;;
22097;SDS011;11215;51.938;8.464;2022-11-20T07:53:39;10.67;;;6.33;;
22097;SDS011;11215;51.938;8.464;2022-11-20T07:56:05;9.47;;;6.07;;
22097;SDS011;11215;51.938;8.464;2022-11-20T07:58:31;9.97;;;6.17;;
22097;SDS011;11215;51.938;8.464;2022-11-20T08:01:03;9.63;;;6.57;;
22097;SDS011;11215;51.938;8.464;2022-11-20T08:03:30;11.10;;;7.20;;
22097;SDS011;11215;51.938;8.464;2022-11-20T08:05:58;10.17;;;6.97;;
22097;SDS011;11215;51.938;8.464;2022-11-20T08:08:25;11.43;;;7.43;;
22097;SDS011;11215;51.938;8.464;2022-11-20T08:10:51;10.70;;;7.73;;
22097;SDS011;11215;51.938;8.464;2022-11-20T08:13:17;9.63;;;6.70;;
22097;SDS011;11215;51.938;8.464;2022-11-20T08:16:02;10.37;;;7.03;;
22097;SDS011;11215;51.938;8.464;2022-11-20T08:18:27;9.37;;;6.10;;
22097;SDS011;11215;51.938;8.464;2022-11-20T08:20:53;9.10;;;6.03;;
22097;SDS011;11215;51.938;8.464;2022-11-20T08:23:19;9.20;;;6.27;;
22097;SDS011;11215;51.938;8.464;2022-11-20T08:25:48;7.87;;;5.67;;
22097;SDS011;11215;51.938;8.464;2022-11-20T08:28:14;10.80;;;6.50;;
22097;SDS011;11215;51.938;8.464;2022-11-20T08:30:40;9.03;;;6.10;;
22097;SDS011;11215;51.938;8.464;2022-11-20T08:33:06;7.50;;;5.57;;
22097;SDS011;11215;51.938;8.464;2022-11-20T08:35:34;8.97;;;5.60;;
22097;SDS011;11215;51.938;8.464;2022-11-20T08:38:01;9.23;;;5.43;;
22097;SDS011;11215;51.938;8.464;2022-11-20T08:40:27;9.80;;;5.90;;
22097;SDS011;11215;51.938;8.464;2022-11-20T08:42:53;7.67;;;5.20;;
22097;SDS011;11215;51.938;8.464;2022-11-20T08:45:19;8.23;;;5.70;;
22097;SDS011;11215;51.938;8.464;2022-11-20T08:47:45;10.80;;;7.40;;
22097;SDS011;11215;51.938;8.464;2022-11-20T08:50:11;9.97;;;7.43;;
22097;SDS011;11215;51.938;8.464;2022-11-20T08:52:39;14.37;;;8.23;;
22097;SDS011;11215;51.938;8.464;2022-11-20T08:55:05;12.50;;;7.23;;
22097;SDS011;11215;51.938;8.464;2022-11-20T08:57:32;9.00;;;5.97;;
22097;SDS011;11215;51.938;8.464;2022-11-20T08:59:58;9.27;;;6.43;;
22097;SDS011;11215;51.938;8.464;2022-11-20T09:02:24;8.47;;;5.87;;
22097;SDS011;11215;51.938;8.464;2022-11-20T09:04:50;10.57;;;7.77;;
22097;SDS011;11215;51.938;8.464;2022-11-20T09:07:16;8.40;;;6.10;;
22097;SDS011;11215;51.938;8.464;2022-11-20T09:09:41;11.80;;;8.23;;
22097;SDS011;11215;51.938;8.464;2022-11-20T09:12:07;7.93;;;5.80;;
22097;SDS011;11215;51.938;8.464;2022-11-20T09:14:33;7.70;;;5.30;;
22097;SDS011;11215;51.938;8.464;2022-11-20T09:16:58;6.80;;;4.97;;
22097;SDS011;11215;51.938;8.464;2022-11-20T09:19:24;7.07;;;4.87;;
22097;SDS011;11215;51.938;8.464;2022-11-20T09:21:50;8.27;;;5.83;;
22097;SDS011;11215;51.938;8.464;2022-11-20T09:24:16;9.07;;;5.03;;
22097;SDS011;11215;51.938;8.464;2022-11-20T09:26:42;8.57;;;6.27;;
22097;SDS011;11215;51.938;8.464;2022-11-20T09:29:08;8.50;;;5.37;;
22097;SDS011;11215;51.938;8.464;2022-11-20T09:31:34;10.33;;;6.67;;
22097;SDS011;11215;51.938;8.464;2022-11-20T09:33:59;8.83;;;5.80;;
22097;SDS011;11215;51.938;8.464;2022-11-20T09:36:25;9.90;;;5.83;;
22097;SDS011;11215;51.938;8.464;2022-11-20T09:38:51;9.27;;;6.57;;
22097;SDS011;11215;51.938;8.464;2022-11-20T09:46:40;10.83;;;7.10;;
22097;SDS011;11215;51.938;8.464;2022-11-20T09:49:17;11.30;;;7.47;;
22097;SDS011;11215;51.938;8.464;2022-11-20T09:51:46;10.10;;;6.90;;
22097;SDS011;11215;51.938;8.464;2022-11-20T09:54:45;11.80;;;7.93;;
22097;SDS011;11215;51.938;8.464;2022-11-20T09:57:13;10.67;;;7.23;;
22097;SDS011;11215;51.938;8.464;2022-11-20T09:59:43;11.37;;;7.07;;
22097;SDS011;11215;51.938;8.464;2022-11-20T10:02:27;10.70;;;6.50;;
22097;SDS011;11215;51.938;8.464;2022-11-20T10:05:10;11.13;;;7.50;;
22097;SDS011;11215;51.938;8.464;2022-11-20T10:16:33;10.07;;;6.77;;
22097;SDS011;11215;51.938;8.464;2022-11-20T10:22:14;11.50;;;7.00;;
22097;SDS011;11215;51.938;8.464;2022-11-20T10:25:14;10.57;;;7.27;;
22097;SDS011;11215;51.938;8.464;2022-11-20T10:32:39;11.60;;;7.40;;
22097;SDS011;11215;51.938;8.464;2022-11-20T10:37:41;10.90;;;7.50;;
22097;SDS011;11215;51.938;8.464;2022-11-20T10:40:33;11.53;;;7.70;;
22097;SDS011;11215;51.938;8.464;2022-11-20T10:43:02;10.70;;;7.10;;
22097;SDS011;11215;51.938;8.464;2022-11-20T10:48:35;11.37;;;7.37;;
22097;SDS011;11215;51.938;8.464;2022-11-20T10:51:05;11.77;;;7.33;;
22097;SDS011;11215;51.938;8.464;2022-11-20T11:01:40;10.57;;;7.63;;
22097;SDS011;11215;51.938;8.464;2022-11-20T11:04:13;14.27;;;9.83;;
22097;SDS011;11215;51.938;8.464;2022-11-20T11:06:47;13.17;;;9.50;;
22097;SDS011;11215;51.938;8.464;2022-11-20T11:09:16;12.70;;;8.10;;
22097;SDS011;11215;51.938;8.464;2022-11-20T11:11:46;10.37;;;8.23;;
22097;SDS011;11215;51.938;8.464;2022-11-20T11:14:13;13.17;;;9.40;;
22097;SDS011;11215;51.938;8.464;2022-11-20T11:19:16;12.37;;;9.77;;
22097;SDS011;11215;51.938;8.464;2022-11-20T11:21:52;13.20;;;8.80;;
22097;SDS011;11215;51.938;8.464;2022-11-20T11:24:20;11.40;;;7.83;;
22097;SDS011;11215;51.938;8.464;2022-11-20T11:27:03;14.00;;;8.93;;
22097;SDS011;11215;51.938;8.464;2022-11-20T11:29:35;10.70;;;7.33;;
22097;SDS011;11215;51.938;8.464;2022-11-20T11:32:14;10.53;;;7.50;;
22097;SDS011;11215;51.938;8.464;2022-11-20T11:34:43;12.00;;;7.77;;
22097;SDS011;11215;51.938;8.464;2022-11-20T11:37:18;11.30;;;7.77;;
22097;SDS011;11215;51.938;8.464;2022-11-20T11:39:49;12.93;;;8.47;;
22097;SDS011;11215;51.938;8.464;2022-11-20T11:42:16;12.33;;;8.27;;
22097;SDS011;11215;51.938;8.464;2022-11-20T11:44:44;13.30;;;7.83;;
22097;SDS011;11215;51.938;8.464;2022-11-20T11:47:31;12.70;;;7.90;;
22097;SDS011;11215;51.938;8.464;2022-11-20T11:55:09;11.83;;;8.10;;
22097;SDS011;11215;51.938;8.464;2022-11-20T11:57:47;13.60;;;8.37;;
22097;SDS011;11215;51.938;8.464;2022-11-20T12:00:19;11.53;;;7.77;;
22097;SDS011;11215;51.938;8.464;2022-11-20T12:02:49;10.93;;;7.33;;
22097;SDS011;11215;51.938;8.464;2022-11-20T12:08:02;11.50;;;7.33;;
22097;SDS011;11215;51.938;8.464;2022-11-20T12:10:50;10.30;;;6.90;;
22097;SDS011;11215;51.938;8.464;2022-11-20T12:16:04;14.83;;;9.73;;
22097;SDS011;11215;51.938;8.464;2022-11-20T12:18:30;12.40;;;9.27;;
22097;SDS011;11215;51.938;8.464;2022-11-20T12:26:15;11.23;;;7.60;;
22097;SDS011;11215;51.938;8.464;2022-11-20T12:29:41;10.37;;;7.00;;
22097;SDS011;11215;51.938;8.464;2022-11-20T12:32:16;9.97;;;6.73;;
22097;SDS011;11215;51.938;8.464;2022-11-20T12:35:05;11.33;;;7.10;;
22097;SDS011;11215;51.938;8.464;2022-11-20T12:43:19;11.27;;;7.27;;
22097;SDS011;11215;51.938;8.464;2022-11-20T12:46:08;12.07;;;7.90;;
22097;SDS011;11215;51.938;8.464;2022-11-20T12:51:50;13.60;;;8.23;;
22097;SDS011;11215;51.938;8.464;2022-11-20T12:57:26;12.17;;;8.27;;
22097;SDS011;11215;51.938;8.464;2022-11-20T13:00:00;11.70;;;7.97;;
22097;SDS011;11215;51.938;8.464;2022-11-20T13:05:43;11.67;;;7.67;;
22097;SDS011;11215;51.938;8.464;2022-11-20T13:08:25;12.63;;;7.50;;
22097;SDS011;11215;51.938;8.464;2022-11-20T13:13:51;12.53;;;8.37;;
22097;SDS011;11215;51.938;8.464;2022-11-20T13:19:03;15.20;;;8.93;;
22097;SDS011;11215;51.938;8.464;2022-11-20T13:21:40;12.80;;;8.77;;
22097;SDS011;11215;51.938;8.464;2022-11-20T13:26:45;12.93;;;8.00;;
22097;SDS011;11215;51.938;8.464;2022-11-20T13:29:12;13.93;;;9.00;;
22097;SDS011;11215;51.938;8.464;2022-11-20T13:31:45;14.83;;;9.23;;
22097;SDS011;11215;51.938;8.464;2022-11-20T13:34:25;13.77;;;8.50;;
22097;SDS011;11215;51.938;8.464;2022-11-20T13:36:55;13.90;;;9.70;;
22097;SDS011;11215;51.938;8.464;2022-11-20T13:39:33;13.93;;;8.97;;
22097;SDS011;11215;51.938;8.464;2022-11-20T13:42:01;13.50;;;7.97;;
22097;SDS011;11215;51.938;8.464;2022-11-20T13:44:29;15.17;;;9.87;;
22097;SDS011;11215;51.938;8.464;2022-11-20T13:47:02;13.53;;;8.97;;
22097;SDS011;11215;51.938;8.464;2022-11-20T13:49:34;15.07;;;9.37;;
22097;SDS011;11215;51.938;8.464;2022-11-20T13:55:02;19.47;;;10.63;;
22097;SDS011;11215;51.938;8.464;2022-11-20T14:02:59;15.70;;;10.40;;
22097;SDS011;11215;51.938;8.464;2022-11-20T14:05:36;15.97;;;10.33;;
22097;SDS011;11215;51.938;8.464;2022-11-20T14:08:05;13.93;;;9.53;;
22097;SDS011;11215;51.938;8.464;2022-11-20T14:10:42;15.80;;;10.23;;
22097;SDS011;11215;51.938;8.464;2022-11-20T14:13:15;16.30;;;10.63;;
22097;SDS011;11215;51.938;8.464;2022-11-20T14:15:44;16.30;;;10.40;;
22097;SDS011;11215;51.938;8.464;2022-11-20T14:18:14;18.70;;;11.80;;
22097;SDS011;11215;51.938;8.464;2022-11-20T14:20:45;17.67;;;10.93;;
22097;SDS011;11215;51.938;8.464;2022-11-20T14:23:11;18.90;;;12.17;;
22097;SDS011;11215;51.938;8.464;2022-11-20T14:25:37;21.23;;;12.47;;
22097;SDS011;11215;51.938;8.464;2022-11-20T14:28:11;18.70;;;11.70;;
22097;SDS011;11215;51.938;8.464;2022-11-20T14:30:54;16.50;;;10.33;;
22097;SDS011;11215;51.938;8.464;2022-11-20T14:33:20;14.67;;;10.03;;
22097;SDS011;11215;51.938;8.464;2022-11-20T14:35:54;17.00;;;11.37;;
22097;SDS011;11215;51.938;8.464;2022-11-20T14:38:22;19.80;;;11.80;;
22097;SDS011;11215;51.938;8.464;2022-11-20T14:40:51;18.53;;;11.87;;
22097;SDS011;11215;51.938;8.464;2022-11-20T14:43:18;18.90;;;12.80;;
22097;SDS011;11215;51.938;8.464;2022-11-20T14:48:28;23.50;;;13.10;;
22097;SDS011;11215;51.938;8.464;2022-11-20T14:54:10;17.67;;;12.10;;
22097;SDS011;11215;51.938;8.464;2022-11-20T14:56:40;18.30;;;11.87;;
22097;SDS011;11215;51.938;8.464;2022-11-20T14:59:07;23.13;;;14.60;;
22097;SDS011;11215;51.938;8.464;2022-11-20T15:01:34;24.03;;;15.37;;
22097;SDS011;11215;51.938;8.464;2022-11-20T15:04:01;20.83;;;13.50;;
22097;SDS011;11215;51.938;8.464;2022-11-20T15:06:31;22.33;;;14.43;;
22097;SDS011;11215;51.938;8.464;2022-11-20T15:08:57;20.40;;;13.70;;
22097;SDS011;11215;51.938;8.464;2022-11-20T15:11:27;22.93;;;14.73;;
22097;SDS011;11215;51.938;8.464;2022-11-20T15:13:55;20.83;;;14.37;;
22097;SDS011;11215;51.938;8.464;2022-11-20T15:16:21;23.67;;;13.67;;
22097;SDS011;11215;51.938;8.464;2022-11-20T15:18:48;21.40;;;14.13;;
22097;SDS011;11215;51.938;8.464;2022-11-20T15:21:16;20.23;;;12.43;;
22097;SDS011;11215;51.938;8.464;2022-11-20T15:23:43;19.40;;;11.93;;
22097;SDS011;11215;51.938;8.464;2022-11-20T15:26:10;19.50;;;12.67;;
22097;SDS011;11215;51.938;8.464;2022-11-20T15:28:43;23.23;;;13.03;;
22097;SDS011;11215;51.938;8.464;2022-11-20T15:31:12;21.03;;;12.63;;
22097;SDS011;11215;51.938;8.464;2022-11-20T15:33:40;19.67;;;12.23;;
22097;SDS011;11215;51.938;8.464;2022-11-20T15:36:08;17.83;;;11.33;;
22097;SDS011;11215;51.938;8.464;2022-11-20T15:38:34;18.20;;;11.43;;
22097;SDS011;11215;51.938;8.464;2022-11-20T15:41:00;20.30;;;12.47;;
22097;SDS011;11215;51.938;8.464;2022-11-20T15:43:26;19.57;;;12.50;;
22097;SDS011;11215;51.938;8.464;2022-11-20T15:46:11;16.63;;;10.93;;
22097;SDS011;11215;51.938;8.464;2022-11-20T15:48:41;18.33;;;11.27;;
22097;SDS011;11215;51.938;8.464;2022-11-20T15:53:34;18.43;;;11.20;;
22097;SDS011;11215;51.938;8.464;2022-11-20T15:56:00;17.23;;;11.37;;
22097;SDS011;11215;51.938;8.464;2022-11-20T15:58:26;18.07;;;11.07;;
22097;SDS011;11215;51.938;8.464;2022-11-20T16:00:52;17.20;;;11.67;;
22097;SDS011;11215;51.938;8.464;2022-11-20T16:03:18;14.63;;;10.37;;
22097;SDS011;11215;51.938;8.464;2022-11-20T16:05:44;17.03;;;11.17;;
22097;SDS011;11215;51.938;8.464;2022-11-20T16:08:10;19.37;;;11.50;;
22097;SDS011;11215;51.938;8.464;2022-11-20T16:10:35;24.97;;;15.13;;
22097;SDS011;11215;51.938;8.464;2022-11-20T16:13:02;25.40;;;14.53;;
22097;SDS011;11215;51.938;8.464;2022-11-20T16:15:50;20.37;;;12.77;;
22097;SDS011;11215;51.938;8.464;2022-11-20T16:18:20;20.33;;;13.50;;
22097;SDS011;11215;51.938;8.464;2022-11-20T16:20:50;18.13;;;12.20;;
22097;SDS011;11215;51.938;8.464;2022-11-20T16:23:17;19.37;;;12.70;;
22097;SDS011;11215;51.938;8.464;2022-11-20T16:25:43;18.63;;;12.40;;
22097;SDS011;11215;51.938;8.464;2022-11-20T16:28:09;20.13;;;12.53;;
22097;SDS011;11215;51.938;8.464;2022-11-20T16:30:35;18.43;;;12.40;;
22097;SDS011;11215;51.938;8.464;2022-11-20T16:33:01;19.23;;;11.30;;
22097;SDS011;11215;51.938;8.464;2022-11-20T16:35:27;20.57;;;12.87;;
22097;SDS011;11215;51.938;8.464;2022-11-20T16:37:54;17.03;;;11.87;;
22097;SDS011;11215;51.938;8.464;2022-11-20T16:40:21;16.93;;;11.70;;